sensor_id;sensor_type;location;lat;lon;timestamp;temperature;humidity
64833;HTU21D;51290;45.060;38.948;2023-12-07T00:00:32;3.06;80.94
64833;HTU21D;51290;45.060;38.948;2023-12-07T00:02:58;3.06;81.07
64833;HTU21D;51290;45.060;38.948;2023-12-07T00:05:25;3.05;81.02
64833;HTU21D;51290;45.060;38.948;2023-12-07T00:07:51;3.08;81.34
64833;HTU21D;51290;45.060;38.948;2023-12-07T00:10:17;3.08;81.25
64833;HTU21D;51290;45.060;38.948;2023-12-07T00:12:43;3.05;81.15
64833;HTU21D;51290;45.060;38.948;2023-12-07T00:15:09;3.08;81.10
64833;HTU21D;51290;45.060;38.948;2023-12-07T00:17:35;3.05;81.09
64833;HTU21D;51290;45.060;38.948;2023-12-07T00:20:01;3.06;81.13
64833;HTU21D;51290;45.060;38.948;2023-12-07T00:22:30;3.06;81.11
64833;HTU21D;51290;45.060;38.948;2023-12-07T00:24:56;3.06;81.36
64833;HTU21D;51290;45.060;38.948;2023-12-07T00:27:22;3.09;81.28
64833;HTU21D;51290;45.060;38.948;2023-12-07T00:29:48;3.09;81.22
64833;HTU21D;51290;45.060;38.948;2023-12-07T00:32:14;3.11;81.27
64833;HTU21D;51290;45.060;38.948;2023-12-07T00:34:40;3.12;81.22
64833;HTU21D;51290;45.060;38.948;2023-12-07T00:37:06;3.12;81.29
64833;HTU21D;51290;45.060;38.948;2023-12-07T00:39:32;3.12;81.27
64833;HTU21D;51290;45.060;38.948;2023-12-07T00:41:58;3.14;81.23
64833;HTU21D;51290;45.060;38.948;2023-12-07T00:44:24;3.13;81.29
64833;HTU21D;51290;45.060;38.948;2023-12-07T00:46:50;3.12;81.39
64833;HTU21D;51290;45.060;38.948;2023-12-07T00:49:16;3.15;81.41
64833;HTU21D;51290;45.060;38.948;2023-12-07T00:51:42;3.15;81.33
64833;HTU21D;51290;45.060;38.948;2023-12-07T00:54:08;3.15;81.42
64833;HTU21D;51290;45.060;38.948;2023-12-07T00:56:34;3.16;81.84
64833;HTU21D;51290;45.060;38.948;2023-12-07T00:59:01;3.17;81.55
64833;HTU21D;51290;45.060;38.948;2023-12-07T01:01:28;3.18;81.59
64833;HTU21D;51290;45.060;38.948;2023-12-07T01:03:54;3.21;81.59
64833;HTU21D;51290;45.060;38.948;2023-12-07T01:06:19;3.20;81.52
64833;HTU21D;51290;45.060;38.948;2023-12-07T01:08:45;3.21;81.49
64833;HTU21D;51290;45.060;38.948;2023-12-07T01:11:11;3.24;81.51
64833;HTU21D;51290;45.060;38.948;2023-12-07T01:13:37;3.25;81.55
64833;HTU21D;51290;45.060;38.948;2023-12-07T01:16:03;3.28;81.55
64833;HTU21D;51290;45.060;38.948;2023-12-07T01:18:29;3.30;81.53
64833;HTU21D;51290;45.060;38.948;2023-12-07T01:20:55;3.30;81.59
64833;HTU21D;51290;45.060;38.948;2023-12-07T01:23:21;3.32;81.57
64833;HTU21D;51290;45.060;38.948;2023-12-07T01:25:47;3.34;81.56
64833;HTU21D;51290;45.060;38.948;2023-12-07T01:28:13;3.38;81.55
64833;HTU21D;51290;45.060;38.948;2023-12-07T01:30:39;3.39;81.62
64833;HTU21D;51290;45.060;38.948;2023-12-07T01:33:05;3.39;81.56
64833;HTU21D;51290;45.060;38.948;2023-12-07T01:35:31;3.42;81.61
64833;HTU21D;51290;45.060;38.948;2023-12-07T01:37:57;3.44;81.70
64833;HTU21D;51290;45.060;38.948;2023-12-07T01:40:23;3.44;81.70
64833;HTU21D;51290;45.060;38.948;2023-12-07T01:42:50;3.45;81.61
64833;HTU21D;51290;45.060;38.948;2023-12-07T01:45:16;3.45;81.55
64833;HTU21D;51290;45.060;38.948;2023-12-07T01:47:43;3.46;81.53
64833;HTU21D;51290;45.060;38.948;2023-12-07T01:50:11;3.47;81.55
64833;HTU21D;51290;45.060;38.948;2023-12-07T01:52:44;3.47;81.63
64833;HTU21D;51290;45.060;38.948;2023-12-07T01:55:11;3.46;81.62
64833;HTU21D;51290;45.060;38.948;2023-12-07T01:57:38;3.46;81.55
64833;HTU21D;51290;45.060;38.948;2023-12-07T02:00:04;3.46;81.65
64833;HTU21D;51290;45.060;38.948;2023-12-07T02:02:31;3.45;81.83
64833;HTU21D;51290;45.060;38.948;2023-12-07T02:05:00;3.44;81.75
64833;HTU21D;51290;45.060;38.948;2023-12-07T02:07:27;3.44;81.86
64833;HTU21D;51290;45.060;38.948;2023-12-07T02:09:53;3.43;81.65
64833;HTU21D;51290;45.060;38.948;2023-12-07T02:12:19;3.41;81.56
64833;HTU21D;51290;45.060;38.948;2023-12-07T02:14:45;3.39;81.52
64833;HTU21D;51290;45.060;38.948;2023-12-07T02:17:17;3.36;81.59
64833;HTU21D;51290;45.060;38.948;2023-12-07T02:22:29;3.28;81.51
64833;HTU21D;51290;45.060;38.948;2023-12-07T02:25:05;3.26;81.61
64833;HTU21D;51290;45.060;38.948;2023-12-07T02:27:35;3.23;81.55
64833;HTU21D;51290;45.060;38.948;2023-12-07T02:30:01;3.19;81.76
64833;HTU21D;51290;45.060;38.948;2023-12-07T02:32:27;3.15;81.62
64833;HTU21D;51290;45.060;38.948;2023-12-07T02:34:53;3.12;81.62
64833;HTU21D;51290;45.060;38.948;2023-12-07T02:37:19;3.11;81.62
64833;HTU21D;51290;45.060;38.948;2023-12-07T02:39:47;3.10;81.70
64833;HTU21D;51290;45.060;38.948;2023-12-07T02:42:15;3.06;81.72
64833;HTU21D;51290;45.060;38.948;2023-12-07T02:44:43;3.06;81.72
64833;HTU21D;51290;45.060;38.948;2023-12-07T02:47:09;3.06;81.83
64833;HTU21D;51290;45.060;38.948;2023-12-07T02:49:35;3.05;81.84
64833;HTU21D;51290;45.060;38.948;2023-12-07T02:52:01;3.05;81.82
64833;HTU21D;51290;45.060;38.948;2023-12-07T02:54:26;3.06;82.21
64833;HTU21D;51290;45.060;38.948;2023-12-07T02:56:52;3.05;82.01
64833;HTU21D;51290;45.060;38.948;2023-12-07T02:59:18;3.04;81.94
64833;HTU21D;51290;45.060;38.948;2023-12-07T03:01:44;3.03;82.07
64833;HTU21D;51290;45.060;38.948;2023-12-07T03:04:10;3.03;81.96
64833;HTU21D;51290;45.060;38.948;2023-12-07T03:06:36;3.01;81.93
64833;HTU21D;51290;45.060;38.948;2023-12-07T03:09:02;3.01;82.03
64833;HTU21D;51290;45.060;38.948;2023-12-07T03:11:28;2.99;82.01
64833;HTU21D;51290;45.060;38.948;2023-12-07T03:13:54;2.98;82.30
64833;HTU21D;51290;45.060;38.948;2023-12-07T03:16:20;2.98;82.07
64833;HTU21D;51290;45.060;38.948;2023-12-07T03:18:46;2.97;82.04
64833;HTU21D;51290;45.060;38.948;2023-12-07T03:21:12;2.96;82.03
64833;HTU21D;51290;45.060;38.948;2023-12-07T03:23:38;2.95;82.02
64833;HTU21D;51290;45.060;38.948;2023-12-07T03:26:04;2.95;82.09
64833;HTU21D;51290;45.060;38.948;2023-12-07T03:28:30;2.94;82.07
64833;HTU21D;51290;45.060;38.948;2023-12-07T03:30:56;2.93;82.05
64833;HTU21D;51290;45.060;38.948;2023-12-07T03:33:22;2.91;82.04
64833;HTU21D;51290;45.060;38.948;2023-12-07T03:35:48;2.91;82.13
64833;HTU21D;51290;45.060;38.948;2023-12-07T03:38:15;2.90;82.13
64833;HTU21D;51290;45.060;38.948;2023-12-07T03:40:40;2.89;82.16
64833;HTU21D;51290;45.060;38.948;2023-12-07T03:43:06;2.89;82.31
64833;HTU21D;51290;45.060;38.948;2023-12-07T03:45:32;2.88;82.44
64833;HTU21D;51290;45.060;38.948;2023-12-07T03:47:58;2.89;82.29
64833;HTU21D;51290;45.060;38.948;2023-12-07T03:50:24;2.87;82.29
64833;HTU21D;51290;45.060;38.948;2023-12-07T03:52:50;2.87;82.32
64833;HTU21D;51290;45.060;38.948;2023-12-07T03:55:16;2.87;82.35
64833;HTU21D;51290;45.060;38.948;2023-12-07T03:57:42;2.87;82.39
64833;HTU21D;51290;45.060;38.948;2023-12-07T04:00:11;2.86;82.44
64833;HTU21D;51290;45.060;38.948;2023-12-07T04:02:37;2.87;82.41
64833;HTU21D;51290;45.060;38.948;2023-12-07T04:05:03;2.89;82.39
64833;HTU21D;51290;45.060;38.948;2023-12-07T04:07:29;2.88;82.41
64833;HTU21D;51290;45.060;38.948;2023-12-07T04:09:55;2.89;82.69
64833;HTU21D;51290;45.060;38.948;2023-12-07T04:12:23;2.90;82.68
64833;HTU21D;51290;45.060;38.948;2023-12-07T04:14:52;2.91;82.62
64833;HTU21D;51290;45.060;38.948;2023-12-07T04:17:18;2.93;82.58
64833;HTU21D;51290;45.060;38.948;2023-12-07T04:19:44;2.94;82.55
64833;HTU21D;51290;45.060;38.948;2023-12-07T04:22:10;2.96;82.52
64833;HTU21D;51290;45.060;38.948;2023-12-07T04:24:36;2.96;82.61
64833;HTU21D;51290;45.060;38.948;2023-12-07T04:27:02;2.97;82.49
64833;HTU21D;51290;45.060;38.948;2023-12-07T04:29:28;2.98;82.47
64833;HTU21D;51290;45.060;38.948;2023-12-07T04:31:53;2.99;82.46
64833;HTU21D;51290;45.060;38.948;2023-12-07T04:34:19;2.99;82.49
64833;HTU21D;51290;45.060;38.948;2023-12-07T04:36:45;2.99;82.42
64833;HTU21D;51290;45.060;38.948;2023-12-07T04:39:11;2.98;82.49
64833;HTU21D;51290;45.060;38.948;2023-12-07T04:41:37;2.98;82.41
64833;HTU21D;51290;45.060;38.948;2023-12-07T04:44:04;2.97;82.35
64833;HTU21D;51290;45.060;38.948;2023-12-07T04:46:30;2.97;82.42
64833;HTU21D;51290;45.060;38.948;2023-12-07T04:48:56;2.97;82.46
64833;HTU21D;51290;45.060;38.948;2023-12-07T04:51:22;2.97;82.42
64833;HTU21D;51290;45.060;38.948;2023-12-07T04:53:47;2.98;82.42
64833;HTU21D;51290;45.060;38.948;2023-12-07T04:56:13;2.99;82.41
64833;HTU21D;51290;45.060;38.948;2023-12-07T04:58:39;3.01;82.38
64833;HTU21D;51290;45.060;38.948;2023-12-07T05:01:05;3.02;82.39
64833;HTU21D;51290;45.060;38.948;2023-12-07T05:03:31;3.04;82.45
64833;HTU21D;51290;45.060;38.948;2023-12-07T05:05:57;3.05;82.37
64833;HTU21D;51290;45.060;38.948;2023-12-07T05:08:23;3.06;82.36
64833;HTU21D;51290;45.060;38.948;2023-12-07T05:10:49;3.09;82.40
64833;HTU21D;51290;45.060;38.948;2023-12-07T05:13:17;3.11;82.33
64833;HTU21D;51290;45.060;38.948;2023-12-07T05:15:43;3.12;82.23
64833;HTU21D;51290;45.060;38.948;2023-12-07T05:18:09;3.15;82.21
64833;HTU21D;51290;45.060;38.948;2023-12-07T05:20:35;3.17;82.16
64833;HTU21D;51290;45.060;38.948;2023-12-07T05:23:05;3.18;82.20
64833;HTU21D;51290;45.060;38.948;2023-12-07T05:25:31;3.21;82.20
64833;HTU21D;51290;45.060;38.948;2023-12-07T05:27:58;3.26;82.17
64833;HTU21D;51290;45.060;38.948;2023-12-07T05:30:24;3.29;82.06
64833;HTU21D;51290;45.060;38.948;2023-12-07T05:32:50;3.32;82.01
64833;HTU21D;51290;45.060;38.948;2023-12-07T05:35:16;3.34;81.97
64833;HTU21D;51290;45.060;38.948;2023-12-07T05:37:42;3.39;81.94
64833;HTU21D;51290;45.060;38.948;2023-12-07T05:40:08;3.43;81.85
64833;HTU21D;51290;45.060;38.948;2023-12-07T05:42:35;3.46;81.81
64833;HTU21D;51290;45.060;38.948;2023-12-07T05:45:01;3.52;81.78
64833;HTU21D;51290;45.060;38.948;2023-12-07T05:47:27;3.57;81.72
64833;HTU21D;51290;45.060;38.948;2023-12-07T05:49:53;3.59;81.51
64833;HTU21D;51290;45.060;38.948;2023-12-07T05:52:18;3.61;81.36
64833;HTU21D;51290;45.060;38.948;2023-12-07T05:54:44;3.64;81.38
64833;HTU21D;51290;45.060;38.948;2023-12-07T05:57:13;3.67;81.39
64833;HTU21D;51290;45.060;38.948;2023-12-07T05:59:39;3.69;81.40
64833;HTU21D;51290;45.060;38.948;2023-12-07T06:02:05;3.73;81.46
64833;HTU21D;51290;45.060;38.948;2023-12-07T06:04:31;3.77;81.44
64833;HTU21D;51290;45.060;38.948;2023-12-07T06:06:57;3.84;81.48
64833;HTU21D;51290;45.060;38.948;2023-12-07T06:09:23;3.89;81.45
64833;HTU21D;51290;45.060;38.948;2023-12-07T06:11:49;3.94;81.22
64833;HTU21D;51290;45.060;38.948;2023-12-07T06:14:15;4.00;81.23
64833;HTU21D;51290;45.060;38.948;2023-12-07T06:16:41;4.05;81.25
64833;HTU21D;51290;45.060;38.948;2023-12-07T06:19:07;4.14;81.18
64833;HTU21D;51290;45.060;38.948;2023-12-07T06:21:33;4.22;81.17
64833;HTU21D;51290;45.060;38.948;2023-12-07T06:23:59;4.30;81.07
64833;HTU21D;51290;45.060;38.948;2023-12-07T06:26:25;4.41;81.12
64833;HTU21D;51290;45.060;38.948;2023-12-07T06:28:51;4.52;80.98
64833;HTU21D;51290;45.060;38.948;2023-12-07T06:31:17;4.60;80.70
64833;HTU21D;51290;45.060;38.948;2023-12-07T06:33:47;4.63;80.38
64833;HTU21D;51290;45.060;38.948;2023-12-07T06:36:23;4.63;80.30
64833;HTU21D;51290;45.060;38.948;2023-12-07T06:38:51;4.65;80.40
64833;HTU21D;51290;45.060;38.948;2023-12-07T06:41:17;4.73;80.49
64833;HTU21D;51290;45.060;38.948;2023-12-07T06:43:44;4.77;80.30
64833;HTU21D;51290;45.060;38.948;2023-12-07T06:46:13;4.81;80.07
64833;HTU21D;51290;45.060;38.948;2023-12-07T06:48:40;4.83;79.96
64833;HTU21D;51290;45.060;38.948;2023-12-07T06:51:06;4.84;79.79
64833;HTU21D;51290;45.060;38.948;2023-12-07T06:53:32;4.88;79.81
64833;HTU21D;51290;45.060;38.948;2023-12-07T06:55:58;4.97;79.92
64833;HTU21D;51290;45.060;38.948;2023-12-07T06:58:25;5.07;80.10
64833;HTU21D;51290;45.060;38.948;2023-12-07T07:00:50;5.23;80.12
64833;HTU21D;51290;45.060;38.948;2023-12-07T07:03:17;5.38;79.95
64833;HTU21D;51290;45.060;38.948;2023-12-07T07:05:43;5.47;79.41
64833;HTU21D;51290;45.060;38.948;2023-12-07T07:08:09;5.50;78.75
64833;HTU21D;51290;45.060;38.948;2023-12-07T07:10:35;5.51;78.75
64833;HTU21D;51290;45.060;38.948;2023-12-07T07:13:02;5.57;78.43
64833;HTU21D;51290;45.060;38.948;2023-12-07T07:15:32;5.55;78.14
64833;HTU21D;51290;45.060;38.948;2023-12-07T07:17:59;5.53;77.97
64833;HTU21D;51290;45.060;38.948;2023-12-07T07:20:25;5.54;77.91
64833;HTU21D;51290;45.060;38.948;2023-12-07T07:22:51;5.50;77.49
64833;HTU21D;51290;45.060;38.948;2023-12-07T07:25:17;5.48;77.85
64833;HTU21D;51290;45.060;38.948;2023-12-07T07:27:47;5.45;77.85
64833;HTU21D;51290;45.060;38.948;2023-12-07T07:30:14;5.42;77.72
64833;HTU21D;51290;45.060;38.948;2023-12-07T07:32:40;5.45;77.96
64833;HTU21D;51290;45.060;38.948;2023-12-07T07:35:06;5.51;78.11
64833;HTU21D;51290;45.060;38.948;2023-12-07T07:37:33;5.61;78.08
64833;HTU21D;51290;45.060;38.948;2023-12-07T07:39:59;5.66;77.77
64833;HTU21D;51290;45.060;38.948;2023-12-07T07:42:35;5.69;77.82
64833;HTU21D;51290;45.060;38.948;2023-12-07T07:45:01;5.75;77.91
64833;HTU21D;51290;45.060;38.948;2023-12-07T07:47:27;5.83;77.66
64833;HTU21D;51290;45.060;38.948;2023-12-07T07:49:53;5.87;77.40
64833;HTU21D;51290;45.060;38.948;2023-12-07T07:52:19;5.91;77.34
64833;HTU21D;51290;45.060;38.948;2023-12-07T07:54:45;5.95;77.41
64833;HTU21D;51290;45.060;38.948;2023-12-07T07:57:11;6.02;77.59
64833;HTU21D;51290;45.060;38.948;2023-12-07T07:59:36;6.12;77.47
64833;HTU21D;51290;45.060;38.948;2023-12-07T08:02:02;6.16;77.29
64833;HTU21D;51290;45.060;38.948;2023-12-07T08:04:28;6.23;77.21
64833;HTU21D;51290;45.060;38.948;2023-12-07T08:06:54;6.31;77.16
64833;HTU21D;51290;45.060;38.948;2023-12-07T08:09:20;6.36;76.92
64833;HTU21D;51290;45.060;38.948;2023-12-07T08:11:46;6.39;76.63
64833;HTU21D;51290;45.060;38.948;2023-12-07T08:14:12;6.41;76.82
64833;HTU21D;51290;45.060;38.948;2023-12-07T08:16:43;6.42;76.40
64833;HTU21D;51290;45.060;38.948;2023-12-07T08:19:09;6.38;75.97
64833;HTU21D;51290;45.060;38.948;2023-12-07T08:21:35;6.34;75.87
64833;HTU21D;51290;45.060;38.948;2023-12-07T08:24:01;6.31;75.79
64833;HTU21D;51290;45.060;38.948;2023-12-07T08:26:27;6.30;75.92
64833;HTU21D;51290;45.060;38.948;2023-12-07T08:28:53;6.35;76.02
64833;HTU21D;51290;45.060;38.948;2023-12-07T08:31:20;6.37;75.67
64833;HTU21D;51290;45.060;38.948;2023-12-07T08:33:45;6.38;75.98
64833;HTU21D;51290;45.060;38.948;2023-12-07T08:36:11;6.40;76.15
64833;HTU21D;51290;45.060;38.948;2023-12-07T08:38:37;6.44;76.05
64833;HTU21D;51290;45.060;38.948;2023-12-07T08:41:03;6.49;76.20
64833;HTU21D;51290;45.060;38.948;2023-12-07T08:43:29;6.52;76.23
64833;HTU21D;51290;45.060;38.948;2023-12-07T08:45:56;6.52;76.06
64833;HTU21D;51290;45.060;38.948;2023-12-07T08:48:22;6.51;75.52
64833;HTU21D;51290;45.060;38.948;2023-12-07T08:50:48;6.51;75.97
64833;HTU21D;51290;45.060;38.948;2023-12-07T08:53:14;6.55;76.19
64833;HTU21D;51290;45.060;38.948;2023-12-07T08:55:40;6.63;76.41
64833;HTU21D;51290;45.060;38.948;2023-12-07T08:58:06;6.75;76.38
64833;HTU21D;51290;45.060;38.948;2023-12-07T09:00:33;6.88;76.16
64833;HTU21D;51290;45.060;38.948;2023-12-07T09:02:59;6.94;75.80
64833;HTU21D;51290;45.060;38.948;2023-12-07T09:05:28;6.95;75.38
64833;HTU21D;51290;45.060;38.948;2023-12-07T09:07:56;6.88;74.96
64833;HTU21D;51290;45.060;38.948;2023-12-07T09:10:22;6.78;75.05
64833;HTU21D;51290;45.060;38.948;2023-12-07T09:12:48;6.72;75.41
64833;HTU21D;51290;45.060;38.948;2023-12-07T09:15:14;6.74;75.44
64833;HTU21D;51290;45.060;38.948;2023-12-07T09:17:41;6.78;74.85
64833;HTU21D;51290;45.060;38.948;2023-12-07T09:20:08;6.80;74.44
64833;HTU21D;51290;45.060;38.948;2023-12-07T09:22:43;6.73;73.80
64833;HTU21D;51290;45.060;38.948;2023-12-07T09:25:09;6.68;73.82
64833;HTU21D;51290;45.060;38.948;2023-12-07T09:27:36;6.67;74.01
64833;HTU21D;51290;45.060;38.948;2023-12-07T09:30:09;6.72;74.51
64833;HTU21D;51290;45.060;38.948;2023-12-07T09:32:39;6.84;74.70
64833;HTU21D;51290;45.060;38.948;2023-12-07T09:35:06;6.93;74.57
64833;HTU21D;51290;45.060;38.948;2023-12-07T09:37:36;7.01;74.52
64833;HTU21D;51290;45.060;38.948;2023-12-07T09:40:02;7.07;74.35
64833;HTU21D;51290;45.060;38.948;2023-12-07T09:42:30;7.12;74.24
64833;HTU21D;51290;45.060;38.948;2023-12-07T09:44:56;7.14;73.96
64833;HTU21D;51290;45.060;38.948;2023-12-07T09:47:23;7.16;74.14
64833;HTU21D;51290;45.060;38.948;2023-12-07T09:49:49;7.27;74.32
64833;HTU21D;51290;45.060;38.948;2023-12-07T09:52:15;7.33;73.99
64833;HTU21D;51290;45.060;38.948;2023-12-07T09:54:42;7.37;73.84
64833;HTU21D;51290;45.060;38.948;2023-12-07T09:57:09;7.41;73.78
64833;HTU21D;51290;45.060;38.948;2023-12-07T09:59:35;7.44;73.69
64833;HTU21D;51290;45.060;38.948;2023-12-07T10:02:02;7.44;73.86
64833;HTU21D;51290;45.060;38.948;2023-12-07T10:04:28;7.44;73.61
64833;HTU21D;51290;45.060;38.948;2023-12-07T10:06:56;7.42;73.64
64833;HTU21D;51290;45.060;38.948;2023-12-07T10:09:23;7.39;73.58
64833;HTU21D;51290;45.060;38.948;2023-12-07T10:11:50;7.34;73.83
64833;HTU21D;51290;45.060;38.948;2023-12-07T10:14:27;7.37;73.86
64833;HTU21D;51290;45.060;38.948;2023-12-07T10:16:55;7.43;73.88
64833;HTU21D;51290;45.060;38.948;2023-12-07T10:19:22;7.45;72.99
64833;HTU21D;51290;45.060;38.948;2023-12-07T10:21:49;7.40;72.61
64833;HTU21D;51290;45.060;38.948;2023-12-07T10:24:19;7.34;72.81
64833;HTU21D;51290;45.060;38.948;2023-12-07T10:26:48;7.30;72.81
64833;HTU21D;51290;45.060;38.948;2023-12-07T10:29:14;7.26;73.22
64833;HTU21D;51290;45.060;38.948;2023-12-07T10:31:42;7.31;73.31
64833;HTU21D;51290;45.060;38.948;2023-12-07T10:34:09;7.32;72.72
64833;HTU21D;51290;45.060;38.948;2023-12-07T10:36:35;7.28;72.55
64833;HTU21D;51290;45.060;38.948;2023-12-07T10:39:01;7.24;72.64
64833;HTU21D;51290;45.060;38.948;2023-12-07T10:41:33;7.22;72.95
64833;HTU21D;51290;45.060;38.948;2023-12-07T10:44:01;7.22;73.16
64833;HTU21D;51290;45.060;38.948;2023-12-07T10:46:27;7.20;72.96
64833;HTU21D;51290;45.060;38.948;2023-12-07T10:49:04;7.15;72.99
64833;HTU21D;51290;45.060;38.948;2023-12-07T10:52:00;7.11;73.41
64833;HTU21D;51290;45.060;38.948;2023-12-07T10:54:33;7.14;73.71
64833;HTU21D;51290;45.060;38.948;2023-12-07T10:57:03;7.17;73.38
64833;HTU21D;51290;45.060;38.948;2023-12-07T10:59:32;7.18;73.21
64833;HTU21D;51290;45.060;38.948;2023-12-07T11:01:59;7.13;72.99
64833;HTU21D;51290;45.060;38.948;2023-12-07T11:04:25;7.09;72.97
64833;HTU21D;51290;45.060;38.948;2023-12-07T11:06:54;7.07;73.07
64833;HTU21D;51290;45.060;38.948;2023-12-07T11:09:28;7.04;73.17
64833;HTU21D;51290;45.060;38.948;2023-12-07T11:12:07;7.02;73.20
64833;HTU21D;51290;45.060;38.948;2023-12-07T11:14:34;7.03;73.44
64833;HTU21D;51290;45.060;38.948;2023-12-07T11:17:00;7.09;73.64
64833;HTU21D;51290;45.060;38.948;2023-12-07T11:21:56;7.20;73.70
64833;HTU21D;51290;45.060;38.948;2023-12-07T11:24:23;7.24;73.70
64833;HTU21D;51290;45.060;38.948;2023-12-07T11:26:54;7.25;73.67
64833;HTU21D;51290;45.060;38.948;2023-12-07T11:29:21;7.27;73.60
64833;HTU21D;51290;45.060;38.948;2023-12-07T11:31:48;7.27;73.73
64833;HTU21D;51290;45.060;38.948;2023-12-07T11:34:40;7.29;73.72
64833;HTU21D;51290;45.060;38.948;2023-12-07T11:37:07;7.30;73.64
64833;HTU21D;51290;45.060;38.948;2023-12-07T11:42:16;7.38;73.79
64833;HTU21D;51290;45.060;38.948;2023-12-07T11:44:44;7.43;73.73
64833;HTU21D;51290;45.060;38.948;2023-12-07T11:47:19;7.46;73.78
64833;HTU21D;51290;45.060;38.948;2023-12-07T11:49:46;7.49;73.64
64833;HTU21D;51290;45.060;38.948;2023-12-07T11:52:15;7.48;73.33
64833;HTU21D;51290;45.060;38.948;2023-12-07T11:54:45;7.46;73.15
64833;HTU21D;51290;45.060;38.948;2023-12-07T11:57:13;7.42;73.10
64833;HTU21D;51290;45.060;38.948;2023-12-07T11:59:39;7.39;73.20
64833;HTU21D;51290;45.060;38.948;2023-12-07T12:02:05;7.38;73.49
64833;HTU21D;51290;45.060;38.948;2023-12-07T12:04:31;7.35;73.55
64833;HTU21D;51290;45.060;38.948;2023-12-07T12:06:57;7.35;73.64
64833;HTU21D;51290;45.060;38.948;2023-12-07T12:09:24;7.34;73.65
64833;HTU21D;51290;45.060;38.948;2023-12-07T12:11:50;7.34;73.72
64833;HTU21D;51290;45.060;38.948;2023-12-07T12:14:17;7.35;73.72
64833;HTU21D;51290;45.060;38.948;2023-12-07T12:16:44;7.35;73.67
64833;HTU21D;51290;45.060;38.948;2023-12-07T12:19:10;7.37;73.68
64833;HTU21D;51290;45.060;38.948;2023-12-07T12:21:37;7.39;73.76
64833;HTU21D;51290;45.060;38.948;2023-12-07T12:24:07;7.41;73.78
64833;HTU21D;51290;45.060;38.948;2023-12-07T12:26:36;7.42;73.75
64833;HTU21D;51290;45.060;38.948;2023-12-07T12:29:05;7.41;73.70
64833;HTU21D;51290;45.060;38.948;2023-12-07T12:31:32;7.40;73.81
64833;HTU21D;51290;45.060;38.948;2023-12-07T12:34:01;7.40;73.93
64833;HTU21D;51290;45.060;38.948;2023-12-07T12:36:27;7.41;74.00
64833;HTU21D;51290;45.060;38.948;2023-12-07T12:38:54;7.42;74.10
64833;HTU21D;51290;45.060;38.948;2023-12-07T12:41:24;7.45;74.14
64833;HTU21D;51290;45.060;38.948;2023-12-07T12:43:51;7.48;74.13
64833;HTU21D;51290;45.060;38.948;2023-12-07T12:46:17;7.50;74.15
64833;HTU21D;51290;45.060;38.948;2023-12-07T12:48:54;7.48;74.05
64833;HTU21D;51290;45.060;38.948;2023-12-07T12:51:28;7.48;74.06
64833;HTU21D;51290;45.060;38.948;2023-12-07T12:53:58;7.46;74.06
64833;HTU21D;51290;45.060;38.948;2023-12-07T12:56:26;7.45;74.14
64833;HTU21D;51290;45.060;38.948;2023-12-07T12:58:54;7.45;74.16
64833;HTU21D;51290;45.060;38.948;2023-12-07T13:01:23;7.44;74.18
64833;HTU21D;51290;45.060;38.948;2023-12-07T13:03:49;7.42;74.18
64833;HTU21D;51290;45.060;38.948;2023-12-07T13:06:16;7.43;74.21
64833;HTU21D;51290;45.060;38.948;2023-12-07T13:08:47;7.41;74.26
64833;HTU21D;51290;45.060;38.948;2023-12-07T13:11:17;7.40;74.28
64833;HTU21D;51290;45.060;38.948;2023-12-07T13:13:44;7.37;74.21
64833;HTU21D;51290;45.060;38.948;2023-12-07T13:16:10;7.32;74.25
64833;HTU21D;51290;45.060;38.948;2023-12-07T13:18:38;7.28;74.24
64833;HTU21D;51290;45.060;38.948;2023-12-07T13:21:04;7.23;74.30
64833;HTU21D;51290;45.060;38.948;2023-12-07T13:23:31;7.16;74.38
64833;HTU21D;51290;45.060;38.948;2023-12-07T13:25:57;7.10;74.47
64833;HTU21D;51290;45.060;38.948;2023-12-07T13:28:23;7.05;74.54
64833;HTU21D;51290;45.060;38.948;2023-12-07T13:30:49;6.99;74.60
64833;HTU21D;51290;45.060;38.948;2023-12-07T13:33:15;6.96;74.68
64833;HTU21D;51290;45.060;38.948;2023-12-07T13:35:41;6.89;74.73
64833;HTU21D;51290;45.060;38.948;2023-12-07T13:38:07;6.86;74.77
64833;HTU21D;51290;45.060;38.948;2023-12-07T13:40:33;6.84;74.87
64833;HTU21D;51290;45.060;38.948;2023-12-07T13:43:03;6.81;74.89
64833;HTU21D;51290;45.060;38.948;2023-12-07T13:45:29;6.79;74.95
64833;HTU21D;51290;45.060;38.948;2023-12-07T13:47:55;6.74;74.99
64833;HTU21D;51290;45.060;38.948;2023-12-07T13:50:21;6.72;75.04
64833;HTU21D;51290;45.060;38.948;2023-12-07T13:52:48;6.72;75.09
64833;HTU21D;51290;45.060;38.948;2023-12-07T13:55:14;6.69;75.08
64833;HTU21D;51290;45.060;38.948;2023-12-07T13:57:40;6.65;75.08
64833;HTU21D;51290;45.060;38.948;2023-12-07T14:00:06;6.58;75.09
64833;HTU21D;51290;45.060;38.948;2023-12-07T14:02:32;6.53;75.11
64833;HTU21D;51290;45.060;38.948;2023-12-07T14:04:58;6.48;75.18
64833;HTU21D;51290;45.060;38.948;2023-12-07T14:07:24;6.42;75.28
64833;HTU21D;51290;45.060;38.948;2023-12-07T14:09:51;6.35;75.31
64833;HTU21D;51290;45.060;38.948;2023-12-07T14:12:18;6.30;75.35
64833;HTU21D;51290;45.060;38.948;2023-12-07T14:14:46;6.26;75.48
64833;HTU21D;51290;45.060;38.948;2023-12-07T14:17:16;6.23;75.56
64833;HTU21D;51290;45.060;38.948;2023-12-07T14:19:45;6.19;75.60
64833;HTU21D;51290;45.060;38.948;2023-12-07T14:22:13;6.14;75.58
64833;HTU21D;51290;45.060;38.948;2023-12-07T14:24:40;6.07;75.58
64833;HTU21D;51290;45.060;38.948;2023-12-07T14:27:06;6.00;75.80
64833;HTU21D;51290;45.060;38.948;2023-12-07T14:29:33;5.95;75.87
64833;HTU21D;51290;45.060;38.948;2023-12-07T14:31:59;5.92;75.89
64833;HTU21D;51290;45.060;38.948;2023-12-07T14:34:25;5.91;76.02
64833;HTU21D;51290;45.060;38.948;2023-12-07T14:36:53;5.90;76.02
64833;HTU21D;51290;45.060;38.948;2023-12-07T14:39:19;5.90;76.07
64833;HTU21D;51290;45.060;38.948;2023-12-07T14:41:46;5.90;76.08
64833;HTU21D;51290;45.060;38.948;2023-12-07T14:44:16;5.90;76.07
64833;HTU21D;51290;45.060;38.948;2023-12-07T14:46:47;5.90;76.04
64833;HTU21D;51290;45.060;38.948;2023-12-07T14:49:14;5.84;76.05
64833;HTU21D;51290;45.060;38.948;2023-12-07T14:51:40;5.82;76.01
64833;HTU21D;51290;45.060;38.948;2023-12-07T14:54:06;5.78;76.02
64833;HTU21D;51290;45.060;38.948;2023-12-07T14:56:33;5.74;76.04
64833;HTU21D;51290;45.060;38.948;2023-12-07T14:59:02;5.70;76.08
64833;HTU21D;51290;45.060;38.948;2023-12-07T15:01:28;5.65;76.12
64833;HTU21D;51290;45.060;38.948;2023-12-07T15:03:56;5.60;76.12
64833;HTU21D;51290;45.060;38.948;2023-12-07T15:06:22;5.53;76.16
64833;HTU21D;51290;45.060;38.948;2023-12-07T15:08:48;5.48;76.21
64833;HTU21D;51290;45.060;38.948;2023-12-07T15:11:14;5.45;76.27
64833;HTU21D;51290;45.060;38.948;2023-12-07T15:13:40;5.41;76.36
64833;HTU21D;51290;45.060;38.948;2023-12-07T15:16:07;5.39;76.34
64833;HTU21D;51290;45.060;38.948;2023-12-07T15:18:33;5.33;76.34
64833;HTU21D;51290;45.060;38.948;2023-12-07T15:21:03;5.27;76.37